sensor_id;sensor_type;location;lat;lon;timestamp;P1;durP1;ratioP1;P2;durP2;ratioP2
42702;SDS011;28341;52.064;4.920;2022-11-09T00:01:30;15.20;;;2.67;;
42702;SDS011;28341;52.064;4.920;2022-11-09T00:03:37;11.57;;;2.97;;
42702;SDS011;28341;52.064;4.920;2022-11-09T00:05:42;12.45;;;2.72;;
42702;SDS011;28341;52.064;4.920;2022-11-09T00:09:59;11.70;;;2.92;;
42702;SDS011;28341;52.064;4.920;2022-11-09T00:12:04;12.43;;;2.60;;
42702;SDS011;28341;52.064;4.920;2022-11-09T00:14:12;15.27;;;2.45;;
42702;SDS011;28341;52.064;4.920;2022-11-09T00:16:18;11.48;;;2.40;;
42702;SDS011;28341;52.064;4.920;2022-11-09T00:18:23;12.73;;;3.00;;
42702;SDS011;28341;52.064;4.920;2022-11-09T00:20:30;12.55;;;3.38;;
42702;SDS011;28341;52.064;4.920;2022-11-09T00:22:34;15.75;;;4.05;;
42702;SDS011;28341;52.064;4.920;2022-11-09T00:24:38;14.38;;;2.72;;
42702;SDS011;28341;52.064;4.920;2022-11-09T00:26:43;15.05;;;2.78;;
42702;SDS011;28341;52.064;4.920;2022-11-09T00:28:47;12.52;;;2.63;;
42702;SDS011;28341;52.064;4.920;2022-11-09T00:30:57;13.25;;;2.45;;
42702;SDS011;28341;52.064;4.920;2022-11-09T00:33:01;14.63;;;3.58;;
42702;SDS011;28341;52.064;4.920;2022-11-09T00:35:06;12.23;;;3.15;;
42702;SDS011;28341;52.064;4.920;2022-11-09T00:37:14;11.10;;;2.53;;
42702;SDS011;28341;52.064;4.920;2022-11-09T00:39:18;18.25;;;2.80;;
42702;SDS011;28341;52.064;4.920;2022-11-09T00:41:23;17.08;;;3.03;;
42702;SDS011;28341;52.064;4.920;2022-11-09T00:43:29;14.45;;;2.53;;
42702;SDS011;28341;52.064;4.920;2022-11-09T00:45:33;9.80;;;2.80;;
42702;SDS011;28341;52.064;4.920;2022-11-09T00:47:37;13.50;;;2.85;;
42702;SDS011;28341;52.064;4.920;2022-11-09T00:49:42;16.42;;;2.85;;
42702;SDS011;28341;52.064;4.920;2022-11-09T00:51:46;12.57;;;3.05;;
42702;SDS011;28341;52.064;4.920;2022-11-09T00:53:54;18.10;;;3.85;;
42702;SDS011;28341;52.064;4.920;2022-11-09T00:55:59;10.13;;;2.22;;
42702;SDS011;28341;52.064;4.920;2022-11-09T00:58:07;14.95;;;3.53;;
42702;SDS011;28341;52.064;4.920;2022-11-09T01:00:12;12.25;;;2.60;;
42702;SDS011;28341;52.064;4.920;2022-11-09T01:02:19;14.80;;;2.90;;
42702;SDS011;28341;52.064;4.920;2022-11-09T01:04:24;14.38;;;2.67;;
42702;SDS011;28341;52.064;4.920;2022-11-09T01:06:28;16.23;;;2.85;;
42702;SDS011;28341;52.064;4.920;2022-11-09T01:08:33;14.02;;;3.40;;
42702;SDS011;28341;52.064;4.920;2022-11-09T01:10:41;20.50;;;3.25;;
42702;SDS011;28341;52.064;4.920;2022-11-09T01:12:47;16.63;;;2.90;;
42702;SDS011;28341;52.064;4.920;2022-11-09T01:14:51;10.90;;;2.30;;
42702;SDS011;28341;52.064;4.920;2022-11-09T01:16:56;15.30;;;2.78;;
42702;SDS011;28341;52.064;4.920;2022-11-09T01:19:00;18.45;;;2.88;;
42702;SDS011;28341;52.064;4.920;2022-11-09T01:21:05;17.25;;;2.78;;
42702;SDS011;28341;52.064;4.920;2022-11-09T01:23:12;15.15;;;2.72;;
42702;SDS011;28341;52.064;4.920;2022-11-09T01:25:18;16.67;;;3.00;;
42702;SDS011;28341;52.064;4.920;2022-11-09T01:27:25;16.83;;;2.97;;
42702;SDS011;28341;52.064;4.920;2022-11-09T01:29:29;13.27;;;3.33;;
42702;SDS011;28341;52.064;4.920;2022-11-09T01:31:33;16.15;;;3.05;;
42702;SDS011;28341;52.064;4.920;2022-11-09T01:33:37;17.25;;;3.15;;
42702;SDS011;28341;52.064;4.920;2022-11-09T01:35:42;15.70;;;2.88;;
42702;SDS011;28341;52.064;4.920;2022-11-09T01:37:46;15.40;;;2.80;;
42702;SDS011;28341;52.064;4.920;2022-11-09T01:39:50;13.20;;;3.00;;
42702;SDS011;28341;52.064;4.920;2022-11-09T01:41:54;16.92;;;2.95;;
42702;SDS011;28341;52.064;4.920;2022-11-09T01:44:09;16.40;;;3.10;;
42702;SDS011;28341;52.064;4.920;2022-11-09T01:46:18;23.70;;;4.05;;
42702;SDS011;28341;52.064;4.920;2022-11-09T01:48:28;14.38;;;3.28;;
42702;SDS011;28341;52.064;4.920;2022-11-09T01:50:38;15.00;;;3.13;;
42702;SDS011;28341;52.064;4.920;2022-11-09T01:52:45;16.92;;;3.20;;
42702;SDS011;28341;52.064;4.920;2022-11-09T01:54:51;12.07;;;2.65;;
42702;SDS011;28341;52.064;4.920;2022-11-09T01:57:00;16.27;;;2.95;;
42702;SDS011;28341;52.064;4.920;2022-11-09T01:59:12;16.38;;;3.05;;
42702;SDS011;28341;52.064;4.920;2022-11-09T02:01:21;16.50;;;2.88;;
42702;SDS011;28341;52.064;4.920;2022-11-09T02:03:26;11.77;;;2.90;;
42702;SDS011;28341;52.064;4.920;2022-11-09T02:05:33;18.52;;;2.70;;
42702;SDS011;28341;52.064;4.920;2022-11-09T02:07:39;19.88;;;3.78;;
42702;SDS011;28341;52.064;4.920;2022-11-09T02:09:44;19.23;;;3.67;;
42702;SDS011;28341;52.064;4.920;2022-11-09T02:11:54;12.32;;;2.88;;
42702;SDS011;28341;52.064;4.920;2022-11-09T02:13:59;16.55;;;3.10;;
42702;SDS011;28341;52.064;4.920;2022-11-09T02:16:09;15.35;;;3.00;;
42702;SDS011;28341;52.064;4.920;2022-11-09T02:18:15;21.08;;;3.67;;
42702;SDS011;28341;52.064;4.920;2022-11-09T02:20:22;14.60;;;2.80;;
42702;SDS011;28341;52.064;4.920;2022-11-09T02:22:27;14.80;;;2.85;;
42702;SDS011;28341;52.064;4.920;2022-11-09T02:24:31;16.33;;;2.85;;
42702;SDS011;28341;52.064;4.920;2022-11-09T02:26:39;16.63;;;2.58;;
42702;SDS011;28341;52.064;4.920;2022-11-09T02:28:46;13.68;;;3.30;;
42702;SDS011;28341;52.064;4.920;2022-11-09T02:30:50;12.98;;;3.35;;
42702;SDS011;28341;52.064;4.920;2022-11-09T02:32:59;16.13;;;3.00;;
42702;SDS011;28341;52.064;4.920;2022-11-09T02:35:03;16.55;;;2.83;;
42702;SDS011;28341;52.064;4.920;2022-11-09T02:37:11;12.02;;;3.08;;
42702;SDS011;28341;52.064;4.920;2022-11-09T02:39:17;18.25;;;2.50;;
42702;SDS011;28341;52.064;4.920;2022-11-09T02:41:24;14.32;;;2.55;;
42702;SDS011;28341;52.064;4.920;2022-11-09T02:43:30;11.45;;;2.78;;
42702;SDS011;28341;52.064;4.920;2022-11-09T02:45:34;11.90;;;2.95;;
42702;SDS011;28341;52.064;4.920;2022-11-09T02:47:39;22.05;;;3.38;;
42702;SDS011;28341;52.064;4.920;2022-11-09T02:49:43;15.75;;;2.92;;
42702;SDS011;28341;52.064;4.920;2022-11-09T02:51:48;15.30;;;3.42;;
42702;SDS011;28341;52.064;4.920;2022-11-09T02:53:54;13.43;;;2.83;;
42702;SDS011;28341;52.064;4.920;2022-11-09T02:56:02;11.35;;;2.60;;
42702;SDS011;28341;52.064;4.920;2022-11-09T02:58:07;12.98;;;3.10;;
42702;SDS011;28341;52.064;4.920;2022-11-09T03:00:13;11.40;;;3.35;;
42702;SDS011;28341;52.064;4.920;2022-11-09T03:02:18;9.45;;;2.60;;
42702;SDS011;28341;52.064;4.920;2022-11-09T03:04:24;12.68;;;3.30;;
42702;SDS011;28341;52.064;4.920;2022-11-09T03:06:29;10.68;;;2.55;;
42702;SDS011;28341;52.064;4.920;2022-11-09T03:08:49;12.18;;;3.30;;
42702;SDS011;28341;52.064;4.920;2022-11-09T03:10:57;8.50;;;2.55;;
42702;SDS011;28341;52.064;4.920;2022-11-09T03:13:02;13.38;;;2.10;;
42702;SDS011;28341;52.064;4.920;2022-11-09T03:15:06;13.07;;;2.75;;
42702;SDS011;28341;52.064;4.920;2022-11-09T03:17:16;13.15;;;2.75;;
42702;SDS011;28341;52.064;4.920;2022-11-09T03:19:20;13.10;;;2.45;;
42702;SDS011;28341;52.064;4.920;2022-11-09T03:21:26;10.50;;;2.28;;
42702;SDS011;28341;52.064;4.920;2022-11-09T03:23:31;10.23;;;2.33;;
42702;SDS011;28341;52.064;4.920;2022-11-09T03:25:36;16.00;;;2.58;;
42702;SDS011;28341;52.064;4.920;2022-11-09T03:27:43;14.50;;;3.28;;
42702;SDS011;28341;52.064;4.920;2022-11-09T03:29:48;17.85;;;3.33;;
42702;SDS011;28341;52.064;4.920;2022-11-09T03:31:53;12.50;;;2.47;;
42702;SDS011;28341;52.064;4.920;2022-11-09T03:33:58;11.95;;;3.55;;
42702;SDS011;28341;52.064;4.920;2022-11-09T03:36:02;11.70;;;2.38;;
42702;SDS011;28341;52.064;4.920;2022-11-09T03:38:08;12.43;;;2.78;;
42702;SDS011;28341;52.064;4.920;2022-11-09T03:40:13;10.20;;;2.72;;
42702;SDS011;28341;52.064;4.920;2022-11-09T03:42:18;8.65;;;2.88;;
42702;SDS011;28341;52.064;4.920;2022-11-09T03:44:25;13.57;;;2.85;;
42702;SDS011;28341;52.064;4.920;2022-11-09T03:46:30;13.43;;;2.80;;
42702;SDS011;28341;52.064;4.920;2022-11-09T03:48:35;11.93;;;2.60;;
42702;SDS011;28341;52.064;4.920;2022-11-09T03:50:39;12.00;;;3.58;;
42702;SDS011;28341;52.064;4.920;2022-11-09T03:52:43;12.77;;;3.03;;
42702;SDS011;28341;52.064;4.920;2022-11-09T03:54:48;11.82;;;3.03;;
42702;SDS011;28341;52.064;4.920;2022-11-09T03:56:52;15.32;;;2.85;;
42702;SDS011;28341;52.064;4.920;2022-11-09T03:58:56;11.82;;;2.20;;
42702;SDS011;28341;52.064;4.920;2022-11-09T04:01:03;10.90;;;2.22;;
42702;SDS011;28341;52.064;4.920;2022-11-09T04:03:07;16.65;;;2.92;;
42702;SDS011;28341;52.064;4.920;2022-11-09T04:05:12;16.05;;;2.72;;
42702;SDS011;28341;52.064;4.920;2022-11-09T04:07:16;13.68;;;2.30;;
42702;SDS011;28341;52.064;4.920;2022-11-09T04:09:21;10.25;;;2.35;;
42702;SDS011;28341;52.064;4.920;2022-11-09T04:11:25;13.15;;;2.40;;
42702;SDS011;28341;52.064;4.920;2022-11-09T04:13:29;11.82;;;2.20;;
42702;SDS011;28341;52.064;4.920;2022-11-09T04:15:34;10.85;;;2.50;;
42702;SDS011;28341;52.064;4.920;2022-11-09T04:17:41;13.48;;;2.40;;
42702;SDS011;28341;52.064;4.920;2022-11-09T04:19:46;14.30;;;2.47;;
42702;SDS011;28341;52.064;4.920;2022-11-09T04:21:50;14.23;;;2.60;;
42702;SDS011;28341;52.064;4.920;2022-11-09T04:23:55;15.25;;;2.97;;
42702;SDS011;28341;52.064;4.920;2022-11-09T04:25:59;10.57;;;2.00;;
42702;SDS011;28341;52.064;4.920;2022-11-09T04:28:04;12.63;;;2.63;;
42702;SDS011;28341;52.064;4.920;2022-11-09T04:30:10;15.70;;;2.13;;
42702;SDS011;28341;52.064;4.920;2022-11-09T04:32:15;17.77;;;2.60;;
42702;SDS011;28341;52.064;4.920;2022-11-09T04:34:22;11.05;;;2.28;;
42702;SDS011;28341;52.064;4.920;2022-11-09T04:36:26;13.38;;;3.03;;
42702;SDS011;28341;52.064;4.920;2022-11-09T04:38:31;12.43;;;2.42;;
42702;SDS011;28341;52.064;4.920;2022-11-09T04:40:35;12.23;;;2.17;;
42702;SDS011;28341;52.064;4.920;2022-11-09T04:42:40;12.52;;;2.40;;
42702;SDS011;28341;52.064;4.920;2022-11-09T04:44:44;14.65;;;2.33;;
42702;SDS011;28341;52.064;4.920;2022-11-09T04:46:48;18.70;;;2.90;;
42702;SDS011;28341;52.064;4.920;2022-11-09T04:48:52;15.65;;;2.70;;
42702;SDS011;28341;52.064;4.920;2022-11-09T04:51:03;15.55;;;3.13;;
42702;SDS011;28341;52.064;4.920;2022-11-09T04:53:10;14.52;;;3.17;;
42702;SDS011;28341;52.064;4.920;2022-11-09T04:55:16;18.58;;;3.05;;
42702;SDS011;28341;52.064;4.920;2022-11-09T04:57:20;15.85;;;2.65;;
42702;SDS011;28341;52.064;4.920;2022-11-09T04:59:24;15.10;;;2.55;;
42702;SDS011;28341;52.064;4.920;2022-11-09T05:01:28;15.43;;;2.42;;
42702;SDS011;28341;52.064;4.920;2022-11-09T05:03:33;15.20;;;2.88;;
42702;SDS011;28341;52.064;4.920;2022-11-09T05:05:37;12.20;;;2.72;;
42702;SDS011;28341;52.064;4.920;2022-11-09T05:07:44;14.68;;;2.95;;
42702;SDS011;28341;52.064;4.920;2022-11-09T05:09:48;13.30;;;2.70;;
42702;SDS011;28341;52.064;4.920;2022-11-09T05:11:53;17.60;;;2.95;;
42702;SDS011;28341;52.064;4.920;2022-11-09T05:13:57;13.07;;;2.65;;
42702;SDS011;28341;52.064;4.920;2022-11-09T05:16:01;18.70;;;3.47;;
42702;SDS011;28341;52.064;4.920;2022-11-09T05:18:06;14.15;;;2.40;;
42702;SDS011;28341;52.064;4.920;2022-11-09T05:20:11;17.40;;;3.00;;
42702;SDS011;28341;52.064;4.920;2022-11-09T05:22:16;18.45;;;2.58;;
42702;SDS011;28341;52.064;4.920;2022-11-09T05:24:35;17.08;;;3.00;;
42702;SDS011;28341;52.064;4.920;2022-11-09T05:26:40;18.33;;;2.85;;
42702;SDS011;28341;52.064;4.920;2022-11-09T05:28:44;16.42;;;2.55;;
42702;SDS011;28341;52.064;4.920;2022-11-09T05:30:49;18.33;;;3.45;;
42702;SDS011;28341;52.064;4.920;2022-11-09T05:32:53;13.32;;;2.83;;
42702;SDS011;28341;52.064;4.920;2022-11-09T05:34:57;17.30;;;3.03;;
42702;SDS011;28341;52.064;4.920;2022-11-09T05:37:02;17.90;;;3.03;;
42702;SDS011;28341;52.064;4.920;2022-11-09T05:39:06;17.27;;;2.38;;
42702;SDS011;28341;52.064;4.920;2022-11-09T05:41:13;18.92;;;3.42;;
42702;SDS011;28341;52.064;4.920;2022-11-09T05:43:18;14.20;;;2.45;;
42702;SDS011;28341;52.064;4.920;2022-11-09T05:45:22;18.65;;;3.28;;
42702;SDS011;28341;52.064;4.920;2022-11-09T05:47:27;15.55;;;2.75;;
42702;SDS011;28341;52.064;4.920;2022-11-09T05:49:31;21.48;;;2.75;;
42702;SDS011;28341;52.064;4.920;2022-11-09T05:51:36;13.75;;;2.80;;
42702;SDS011;28341;52.064;4.920;2022-11-09T05:53:40;14.30;;;2.50;;
42702;SDS011;28341;52.064;4.920;2022-11-09T05:55:44;18.52;;;3.03;;
42702;SDS011;28341;52.064;4.920;2022-11-09T05:57:51;8.02;;;2.60;;
42702;SDS011;28341;52.064;4.920;2022-11-09T05:59:55;19.40;;;3.28;;
42702;SDS011;28341;52.064;4.920;2022-11-09T06:02:00;14.60;;;3.55;;
42702;SDS011;28341;52.064;4.920;2022-11-09T06:04:04;14.15;;;2.92;;
42702;SDS011;28341;52.064;4.920;2022-11-09T06:06:09;18.48;;;3.08;;
42702;SDS011;28341;52.064;4.920;2022-11-09T06:08:15;16.45;;;2.92;;
42702;SDS011;28341;52.064;4.920;2022-11-09T06:10:20;17.33;;;3.00;;
42702;SDS011;28341;52.064;4.920;2022-11-09T06:12:24;22.42;;;3.15;;
42702;SDS011;28341;52.064;4.920;2022-11-09T06:14:31;16.58;;;3.58;;
42702;SDS011;28341;52.064;4.920;2022-11-09T06:16:35;19.80;;;2.97;;
42702;SDS011;28341;52.064;4.920;2022-11-09T06:18:39;13.25;;;3.17;;
42702;SDS011;28341;52.064;4.920;2022-11-09T06:20:44;11.38;;;3.03;;
42702;SDS011;28341;52.064;4.920;2022-11-09T06:22:51;48.58;;;27.50;;
42702;SDS011;28341;52.064;4.920;2022-11-09T06:24:56;74.18;;;43.83;;
42702;SDS011;28341;52.064;4.920;2022-11-09T06:27:01;86.88;;;56.03;;
42702;SDS011;28341;52.064;4.920;2022-11-09T06:29:05;148.02;;;93.45;;
42702;SDS011;28341;52.064;4.920;2022-11-09T06:31:14;111.30;;;72.60;;
42702;SDS011;28341;52.064;4.920;2022-11-09T06:33:19;19.33;;;4.60;;
42702;SDS011;28341;52.064;4.920;2022-11-09T06:35:24;20.08;;;3.58;;
42702;SDS011;28341;52.064;4.920;2022-11-09T06:37:28;18.52;;;3.55;;
42702;SDS011;28341;52.064;4.920;2022-11-09T06:39:32;17.02;;;3.10;;
42702;SDS011;28341;52.064;4.920;2022-11-09T06:41:37;13.70;;;3.47;;
42702;SDS011;28341;52.064;4.920;2022-11-09T06:43:41;20.83;;;4.57;;
42702;SDS011;28341;52.064;4.920;2022-11-09T06:45:45;18.23;;;3.58;;
42702;SDS011;28341;52.064;4.920;2022-11-09T06:47:52;21.35;;;3.83;;
42702;SDS011;28341;52.064;4.920;2022-11-09T06:49:58;158.70;;;113.93;;
42702;SDS011;28341;52.064;4.920;2022-11-09T06:52:02;130.23;;;94.68;;
42702;SDS011;28341;52.064;4.920;2022-11-09T06:54:06;26.15;;;4.88;;
42702;SDS011;28341;52.064;4.920;2022-11-09T06:56:11;16.25;;;3.10;;
42702;SDS011;28341;52.064;4.920;2022-11-09T06:58:15;14.23;;;3.47;;
42702;SDS011;28341;52.064;4.920;2022-11-09T07:00:20;19.95;;;3.15;;
42702;SDS011;28341;52.064;4.920;2022-11-09T07:02:25;18.45;;;3.22;;
42702;SDS011;28341;52.064;4.920;2022-11-09T07:04:31;16.42;;;3.15;;
42702;SDS011;28341;52.064;4.920;2022-11-09T07:06:38;17.33;;;3.30;;
42702;SDS011;28341;52.064;4.920;2022-11-09T07:08:42;19.77;;;3.42;;
42702;SDS011;28341;52.064;4.920;2022-11-09T07:10:47;20.92;;;3.58;;
42702;SDS011;28341;52.064;4.920;2022-11-09T07:12:51;19.20;;;3.42;;
42702;SDS011;28341;52.064;4.920;2022-11-09T07:14:56;14.40;;;3.40;;
42702;SDS011;28341;52.064;4.920;2022-11-09T07:17:00;17.15;;;3.33;;
42702;SDS011;28341;52.064;4.920;2022-11-09T07:19:04;18.15;;;3.97;;
42702;SDS011;28341;52.064;4.920;2022-11-09T07:21:11;22.75;;;4.03;;
42702;SDS011;28341;52.064;4.920;2022-11-09T07:23:16;20.08;;;3.50;;
42702;SDS011;28341;52.064;4.920;2022-11-09T07:25:21;37.30;;;17.30;;
42702;SDS011;28341;52.064;4.920;2022-11-09T07:27:29;60.90;;;42.50;;
42702;SDS011;28341;52.064;4.920;2022-11-09T07:29:33;15.65;;;4.07;;
42702;SDS011;28341;52.064;4.920;2022-11-09T07:31:38;21.15;;;3.63;;
42702;SDS011;28341;52.064;4.920;2022-11-09T07:33:42;16.80;;;3.10;;
42702;SDS011;28341;52.064;4.920;2022-11-09T07:35:46;27.00;;;4.10;;
42702;SDS011;28341;52.064;4.920;2022-11-09T07:37:53;15.38;;;3.60;;
42702;SDS011;28341;52.064;4.920;2022-11-09T07:40:04;20.60;;;3.55;;
42702;SDS011;28341;52.064;4.920;2022-11-09T07:42:10;16.98;;;3.78;;
42702;SDS011;28341;52.064;4.920;2022-11-09T07:44:15;16.15;;;3.60;;
42702;SDS011;28341;52.064;4.920;2022-11-09T07:46:20;15.88;;;3.67;;
42702;SDS011;28341;52.064;4.920;2022-11-09T07:48:25;18.80;;;3.53;;
42702;SDS011;28341;52.064;4.920;2022-11-09T07:50:29;18.60;;;4.90;;
42702;SDS011;28341;52.064;4.920;2022-11-09T07:52:34;18.13;;;4.03;;
42702;SDS011;28341;52.064;4.920;2022-11-09T07:54:41;21.05;;;4.15;;
42702;SDS011;28341;52.064;4.920;2022-11-09T07:56:45;15.07;;;4.30;;
42702;SDS011;28341;52.064;4.920;2022-11-09T07:58:50;19.50;;;4.28;;
42702;SDS011;28341;52.064;4.920;2022-11-09T08:00:54;18.02;;;4.10;;
42702;SDS011;28341;52.064;4.920;2022-11-09T08:02:59;18.55;;;4.28;;
42702;SDS011;28341;52.064;4.920;2022-11-09T08:05:03;21.13;;;4.15;;
42702;SDS011;28341;52.064;4.920;2022-11-09T08:07:08;17.42;;;3.67;;
42702;SDS011;28341;52.064;4.920;2022-11-09T08:09:13;17.98;;;4.05;;
42702;SDS011;28341;52.064;4.920;2022-11-09T08:11:19;19.75;;;4.63;;
42702;SDS011;28341;52.064;4.920;2022-11-09T08:13:24;23.30;;;4.40;;
42702;SDS011;28341;52.064;4.920;2022-11-09T08:15:28;20.17;;;4.30;;
42702;SDS011;28341;52.064;4.920;2022-11-09T08:17:33;16.27;;;3.83;;
42702;SDS011;28341;52.064;4.920;2022-11-09T08:19:37;17.73;;;4.40;;
42702;SDS011;28341;52.064;4.920;2022-11-09T08:21:41;17.25;;;3.95;;
42702;SDS011;28341;52.064;4.920;2022-11-09T08:23:46;19.42;;;4.40;;
42702;SDS011;28341;52.064;4.920;2022-11-09T08:25:50;17.45;;;3.75;;
42702;SDS011;28341;52.064;4.920;2022-11-09T08:27:57;16.65;;;4.10;;
42702;SDS011;28341;52.064;4.920;2022-11-09T08:30:02;20.52;;;4.05;;
42702;SDS011;28341;52.064;4.920;2022-11-09T08:32:07;17.55;;;3.88;;
42702;SDS011;28341;52.064;4.920;2022-11-09T08:34:12;18.70;;;3.47;;
42702;SDS011;28341;52.064;4.920;2022-11-09T08:36:16;17.50;;;3.85;;
42702;SDS011;28341;52.064;4.920;2022-11-09T08:38:21;18.67;;;3.67;;
42702;SDS011;28341;52.064;4.920;2022-11-09T08:40:25;18.67;;;3.38;;
42702;SDS011;28341;52.064;4.920;2022-11-09T08:42:30;20.45;;;4.43;;
42702;SDS011;28341;52.064;4.920;2022-11-09T08:44:36;17.73;;;3.83;;
42702;SDS011;28341;52.064;4.920;2022-11-09T08:46:41;18.33;;;3.72;;
42702;SDS011;28341;52.064;4.920;2022-11-09T08:48:45;26.10;;;4.10;;
42702;SDS011;28341;52.064;4.920;2022-11-09T08:50:50;16.38;;;3.67;;
42702;SDS011;28341;52.064;4.920;2022-11-09T08:52:55;14.15;;;4.07;;
42702;SDS011;28341;52.064;4.920;2022-11-09T08:55:00;22.50;;;4.05;;
42702;SDS011;28341;52.064;4.920;2022-11-09T08:57:04;22.10;;;4.07;;
42702;SDS011;28341;52.064;4.920;2022-11-09T08:59:08;20.33;;;3.75;;
42702;SDS011;28341;52.064;4.920;2022-11-09T09:01:15;18.58;;;3.75;;
42702;SDS011;28341;52.064;4.920;2022-11-09T09:03:20;23.23;;;3.70;;
42702;SDS011;28341;52.064;4.920;2022-11-09T09:05:25;18.77;;;3.40;;
42702;SDS011;28341;52.064;4.920;2022-11-09T09:07:29;18.75;;;4.05;;
42702;SDS011;28341;52.064;4.920;2022-11-09T09:09:33;16.60;;;3.72;;
42702;SDS011;28341;52.064;4.920;2022-11-09T09:11:38;17.00;;;3.95;;
42702;SDS011;28341;52.064;4.920;2022-11-09T09:13:42;14.82;;;4.07;;
42702;SDS011;28341;52.064;4.920;2022-11-09T09:15:46;19.08;;;4.15;;
42702;SDS011;28341;52.064;4.920;2022-11-09T09:17:53;21.92;;;4.07;;
42702;SDS011;28341;52.064;4.920;2022-11-09T09:19:57;21.83;;;5.13;;
42702;SDS011;28341;52.064;4.920;2022-11-09T09:22:01;15.20;;;4.00;;
42702;SDS011;28341;52.064;4.920;2022-11-09T09:24:06;25.10;;;4.78;;
42702;SDS011;28341;52.064;4.920;2022-11-09T09:26:11;21.73;;;4.63;;
42702;SDS011;28341;52.064;4.920;2022-11-09T09:28:15;16.50;;;3.40;;
42702;SDS011;28341;52.064;4.920;2022-11-09T09:30:20;20.92;;;3.50;;
42702;SDS011;28341;52.064;4.920;2022-11-09T09:32:24;17.50;;;3.95;;
42702;SDS011;28341;52.064;4.920;2022-11-09T09:34:31;17.90;;;3.25;;
42702;SDS011;28341;52.064;4.920;2022-11-09T09:36:35;12.75;;;3.38;;
42702;SDS011;28341;52.064;4.920;2022-11-09T09:38:40;14.82;;;3.63;;
42702;SDS011;28341;52.064;4.920;2022-11-09T09:40:47;19.42;;;3.80;;
42702;SDS011;28341;52.064;4.920;2022-11-09T09:42:59;15.23;;;3.58;;
42702;SDS011;28341;52.064;4.920;2022-11-09T09:45:04;15.60;;;3.30;;
42702;SDS011;28341;52.064;4.920;2022-11-09T09:47:16;16.42;;;3.53;;
42702;SDS011;28341;52.064;4.920;2022-11-09T09:49:24;15.15;;;3.65;;
42702;SDS011;28341;52.064;4.920;2022-11-09T09:51:34;16.92;;;3.92;;
42702;SDS011;28341;52.064;4.920;2022-11-09T09:53:44;16.77;;;4.32;;
42702;SDS011;28341;52.064;4.920;2022-11-09T09:55:52;15.15;;;3.33;;
42702;SDS011;28341;52.064;4.920;2022-11-09T09:58:05;20.95;;;3.33;;
42702;SDS011;28341;52.064;4.920;2022-11-09T10:00:17;17.45;;;4.70;;
42702;SDS011;28341;52.064;4.920;2022-11-09T10:02:25;10.73;;;3.25;;
42702;SDS011;28341;52.064;4.920;2022-11-09T10:04:33;18.17;;;3.10;;
42702;SDS011;28341;52.064;4.920;2022-11-09T10:06:47;13.98;;;3.50;;
42702;SDS011;28341;52.064;4.920;2022-11-09T10:09:02;15.48;;;4.30;;
42702;SDS011;28341;52.064;4.920;2022-11-09T10:11:24;15.43;;;3.22;;
42702;SDS011;28341;52.064;4.920;2022-11-09T10:13:37;15.43;;;3.47;;
42702;SDS011;28341;52.064;4.920;2022-11-09T10:15:54;15.15;;;3.25;;
42702;SDS011;28341;52.064;4.920;2022-11-09T10:18:11;13.63;;;3.20;;
42702;SDS011;28341;52.064;4.920;2022-11-09T10:20:38;14.00;;;3.25;;
42702;SDS011;28341;52.064;4.920;2022-11-09T10:23:00;16.50;;;2.92;;
42702;SDS011;28341;52.064;4.920;2022-11-09T10:25:22;15.00;;;2.83;;
42702;SDS011;28341;52.064;4.920;2022-11-09T10:27:29;14.20;;;3.08;;
42702;SDS011;28341;52.064;4.920;2022-11-09T10:29:37;11.80;;;2.65;;
42702;SDS011;28341;52.064;4.920;2022-11-09T10:31:45;14.00;;;2.95;;
42702;SDS011;28341;52.064;4.920;2022-11-09T10:33:52;18.00;;;3.15;;
42702;SDS011;28341;52.064;4.920;2022-11-09T10:36:00;15.43;;;3.28;;
42702;SDS011;28341;52.064;4.920;2022-11-09T10:38:17;13.10;;;3.40;;
42702;SDS011;28341;52.064;4.920;2022-11-09T10:40:44;14.77;;;3.05;;
42702;SDS011;28341;52.064;4.920;2022-11-09T10:43:13;10.63;;;2.35;;
42702;SDS011;28341;52.064;4.920;2022-11-09T10:45:36;14.90;;;3.50;;
42702;SDS011;28341;52.064;4.920;2022-11-09T10:48:01;8.77;;;2.47;;
42702;SDS011;28341;52.064;4.920;2022-11-09T10:50:28;13.13;;;3.08;;
42702;SDS011;28341;52.064;4.920;2022-11-09T10:53:06;14.30;;;3.35;;
42702;SDS011;28341;52.064;4.920;2022-11-09T10:55:35;14.18;;;2.58;;
42702;SDS011;28341;52.064;4.920;2022-11-09T10:57:58;12.77;;;3.08;;
42702;SDS011;28341;52.064;4.920;2022-11-09T11:00:42;16.88;;;3.40;;
42702;SDS011;28341;52.064;4.920;2022-11-09T11:03:23;12.52;;;2.50;;
42702;SDS011;28341;52.064;4.920;2022-11-09T11:05:47;11.13;;;2.72;;
42702;SDS011;28341;52.064;4.920;2022-11-09T11:08:24;16.58;;;3.70;;
42702;SDS011;28341;52.064;4.920;2022-11-09T11:10:53;15.43;;;2.90;;
42702;SDS011;28341;52.064;4.920;2022-11-09T11:13:42;15.07;;;3.30;;
42702;SDS011;28341;52.064;4.920;2022-11-09T11:16:12;18.38;;;3.05;;
42702;SDS011;28341;52.064;4.920;2022-11-09T11:18:47;12.32;;;2.15;;
42702;SDS011;28341;52.064;4.920;2022-11-09T11:21:13;18.57;;;3.47;;
42702;SDS011;28341;52.064;4.920;2022-11-09T11:23:38;11.85;;;2.28;;
42702;SDS011;28341;52.064;4.920;2022-11-09T11:26:05;13.77;;;2.55;;
42702;SDS011;28341;52.064;4.920;2022-11-09T11:28:44;19.80;;;3.30;;
42702;SDS011;28341;52.064;4.920;2022-11-09T11:31:11;10.80;;;2.30;;
42702;SDS011;28341;52.064;4.920;2022-11-09T11:33:37;8.75;;;2.15;;
42702;SDS011;28341;52.064;4.920;2022-11-09T11:36:03;9.52;;;2.13;;
42702;SDS011;28341;52.064;4.920;2022-11-09T11:38:40;10.93;;;1.55;;
42702;SDS011;28341;52.064;4.920;2022-11-09T11:41:18;6.45;;;1.05;;
42702;SDS011;28341;52.064;4.920;2022-11-09T11:44:11;6.82;;;1.17;;
42702;SDS011;28341;52.064;4.920;2022-11-09T11:46:44;4.20;;;1.08;;
42702;SDS011;28341;52.064;4.920;2022-11-09T11:49:19;6.07;;;1.20;;
42702;SDS011;28341;52.064;4.920;2022-11-09T11:52:18;3.88;;;1.00;;
42702;SDS011;28341;52.064;4.920;2022-11-09T11:54:53;5.93;;;1.00;;
42702;SDS011;28341;52.064;4.920;2022-11-09T11:57:41;4.13;;;0.80;;
42702;SDS011;28341;52.064;4.920;2022-11-09T12:00:14;3.47;;;0.70;;
42702;SDS011;28341;52.064;4.920;2022-11-09T12:02:59;4.10;;;0.90;;
42702;SDS011;28341;52.064;4.920;2022-11-09T12:05:53;7.10;;;1.48;;
42702;SDS011;28341;52.064;4.920;2022-11-09T12:08:28;6.95;;;1.40;;
42702;SDS011;28341;52.064;4.920;2022-11-09T12:11:01;9.02;;;1.80;;
42702;SDS011;28341;52.064;4.920;2022-11-09T12:13:37;5.85;;;1.88;;
42702;SDS011;28341;52.064;4.920;2022-11-09T12:16:15;8.85;;;2.13;;
42702;SDS011;28341;52.064;4.920;2022-11-09T12:18:47;7.93;;;2.42;;
42702;SDS011;28341;52.064;4.920;2022-11-09T12:21:22;16.13;;;2.60;;
42702;SDS011;28341;52.064;4.920;2022-11-09T12:26:29;13.77;;;2.60;;
42702;SDS011;28341;52.064;4.920;2022-11-09T12:29:10;10.45;;;3.00;;
42702;SDS011;28341;52.064;4.920;2022-11-09T12:31:41;8.27;;;2.42;;
42702;SDS011;28341;52.064;4.920;2022-11-09T12:34:18;16.23;;;2.10;;
42702;SDS011;28341;52.064;4.920;2022-11-09T12:36:47;10.65;;;2.45;;
42702;SDS011;28341;52.064;4.920;2022-11-09T12:39:15;10.63;;;2.65;;
42702;SDS011;28341;52.064;4.920;2022-11-09T12:41:43;11.90;;;2.08;;
42702;SDS011;28341;52.064;4.920;2022-11-09T12:44:12;14.35;;;2.72;;
42702;SDS011;28341;52.064;4.920;2022-11-09T12:46:39;10.95;;;2.78;;
42702;SDS011;28341;52.064;4.920;2022-11-09T12:49:07;9.35;;;2.03;;
42702;SDS011;28341;52.064;4.920;2022-11-09T12:51:43;12.07;;;2.85;;
42702;SDS011;28341;52.064;4.920;2022-11-09T12:54:06;12.90;;;2.38;;
42702;SDS011;28341;52.064;4.920;2022-11-09T12:56:32;6.10;;;1.77;;
42702;SDS011;28341;52.064;4.920;2022-11-09T13:01:58;11.07;;;2.00;;